KSJT

San Angelo Regional / Mathis Field Airport

San Angelo, Texas, USA
METAR KSJT 190551Z AUTO 21007KT 10SM CLR 02/M06 A3023 RMK AO2 SLP245 T00221061 10089 20011 401111006 50001
Observed Flight Rules
Jan-19 @ 05:51 UTC (an hour ago) Visual Flight Rules
Wind Visibility Clouds
210° at 7 knots 10 miles
  • Clear skies
Temperatures Readings
Current 2°C / 36°F
Dewpoint -6°C / 21°F
Humidity 56%
Altimeter 30.23" Hg
Pressure 1024.5 hPa
Elevation 576
METAR KSJT 190551Z AUTO 21007KT 10SM CLR 02/M06 A3023 RMK AO2 SLP245 T00221061 10089 20011 401111006 50001
Observed Flight Rules
Jan-19 @ 05:51 UTC
(an hour ago)
VFR
Wind Visibility
210° at 7 knots 10 miles
Clouds
  • Clear skies
Temperature Dewpoint
2°C / 36°F -6°C / 21°F
Humidity Altimeter Pressure
56% 30.23" Hg 1024.5 hPa